ARG2558 RJCC-VHHH
Flight info
| Callsign | ARG2558 |
|---|---|
| Flight time | 2h 54m |
| Altitude | 30000 |
| Route | DALBI Y120 TAPPI Y12 ARIKA Y14 SAMON/N0465F320 Y14 MIHOU Y45 HKC Y50 IGMON A1 DRAKE/N0474F340 A1 ELATO V522 ABBEY |
| Aircraft | B737/M-SDE2E3FGHIRWXY/LB1 |
Departure
| Time | 2026-05-04 22:56 |
|---|---|
| Airport | New Chitose Airport (RJCC) |
Arrival
| Time | 2026-05-05 01:50 |
|---|---|
| Airport | Hong Kong International Airport (VHHH) |
| Time | Latitude | Longitude | Altitude | Speed | Heading |
|---|---|---|---|---|---|
| 2026-05-04 22:43 | 42.78620 | 141.68245 | 78 ft | 0 kts | 294° |
| 2026-05-04 22:51 | 42.78618 | 141.68249 | 78 ft | 3 kts | 294° |
| 2026-05-04 22:51 | 42.78607 | 141.68281 | 69 ft | 4 kts | 297° |
| 2026-05-04 22:51 | 42.78593 | 141.68313 | 70 ft | 4 kts | 303° |
| 2026-05-04 22:51 | 42.78577 | 141.68342 | 78 ft | 4 kts | 319° |
| 2026-05-04 22:52 | 42.78557 | 141.68355 | 78 ft | 2 kts | 16° |
| 2026-05-04 22:52 | 42.78551 | 141.68352 | 78 ft | 0 kts | 18° |
| 2026-05-04 22:54 | 42.78582 | 141.68366 | 69 ft | 12 kts | 18° |
| 2026-05-04 22:54 | 42.78717 | 141.68405 | 75 ft | 27 kts | 8° |
| 2026-05-04 22:54 | 42.78895 | 141.68464 | 76 ft | 26 kts | 52° |
| 2026-05-04 22:54 | 42.78931 | 141.68684 | 78 ft | 24 kts | 117° |
| 2026-05-04 22:55 | 42.78770 | 141.68820 | 70 ft | 41 kts | 167° |
| 2026-05-04 22:55 | 42.78262 | 141.68917 | 80 ft | 112 kts | 172° |
| 2026-05-04 22:55 | 42.77238 | 141.69098 | 173 ft | 173 kts | 171° |
| 2026-05-04 22:55 | 42.76069 | 141.69186 | 647 ft | 172 kts | 191° |
| 2026-05-04 22:56 | 42.74970 | 141.68488 | 1020 ft | 176 kts | 222° |
| 2026-05-04 22:56 | 42.74262 | 141.67204 | 1792 ft | 164 kts | 236° |
| 2026-05-04 22:56 | 42.73627 | 141.65861 | 2488 ft | 186 kts | 237° |
| 2026-05-04 22:56 | 42.72840 | 141.64252 | 2820 ft | 221 kts | 237° |
| 2026-05-04 22:57 | 42.71941 | 141.62469 | 3487 ft | 231 kts | 236° |
| 2026-05-04 22:57 | 42.71009 | 141.60674 | 4386 ft | 234 kts | 236° |
| 2026-05-04 22:57 | 42.70031 | 141.58830 | 5052 ft | 252 kts | 235° |
| 2026-05-04 22:57 | 42.68969 | 141.56866 | 5940 ft | 261 kts | 236° |
| 2026-05-04 22:58 | 42.67875 | 141.54869 | 6950 ft | 266 kts | 235° |
| 2026-05-04 22:58 | 42.66743 | 141.52827 | 7893 ft | 273 kts | 236° |
| 2026-05-04 22:58 | 42.65575 | 141.50739 | 8774 ft | 281 kts | 236° |
| 2026-05-04 22:58 | 42.64371 | 141.48603 | 9681 ft | 287 kts | 236° |
| 2026-05-04 22:59 | 42.63144 | 141.46438 | 10556 ft | 295 kts | 236° |
| 2026-05-04 22:59 | 42.61842 | 141.44137 | 10877 ft | 322 kts | 237° |
| 2026-05-04 22:59 | 42.60418 | 141.41623 | 11101 ft | 349 kts | 236° |
| 2026-05-04 22:59 | 42.58884 | 141.38933 | 11505 ft | 367 kts | 236° |
| 2026-05-04 23:00 | 42.57299 | 141.36170 | 12249 ft | 373 kts | 236° |
| 2026-05-04 23:00 | 42.55723 | 141.33433 | 13168 ft | 373 kts | 236° |
| 2026-05-04 23:00 | 42.54118 | 141.30647 | 14018 ft | 376 kts | 236° |
| 2026-05-04 23:00 | 42.52497 | 141.27831 | 14803 ft | 380 kts | 236° |
| 2026-05-04 23:01 | 42.50865 | 141.24999 | 15633 ft | 383 kts | 236° |
| 2026-05-04 23:01 | 42.49216 | 141.22139 | 16439 ft | 386 kts | 236° |
| 2026-05-04 23:01 | 42.47556 | 141.19263 | 17217 ft | 389 kts | 236° |
| 2026-05-04 23:01 | 42.45881 | 141.16363 | 17923 ft | 393 kts | 236° |
| 2026-05-04 23:02 | 42.44332 | 141.13684 | 18547 ft | 397 kts | 236° |
| 2026-05-04 23:02 | 42.42624 | 141.10731 | 19246 ft | 400 kts | 236° |
| 2026-05-04 23:02 | 42.40893 | 141.07743 | 19929 ft | 404 kts | 236° |
| 2026-05-04 23:02 | 42.39152 | 141.04739 | 20580 ft | 407 kts | 236° |
| 2026-05-04 23:03 | 42.37416 | 141.01749 | 21182 ft | 410 kts | 236° |
| 2026-05-04 23:03 | 42.35645 | 140.98700 | 21771 ft | 414 kts | 235° |
| 2026-05-04 23:03 | 42.33855 | 140.95621 | 22346 ft | 417 kts | 235° |
| 2026-05-04 23:03 | 42.32056 | 140.92529 | 22890 ft | 421 kts | 235° |
| 2026-05-04 23:04 | 42.30240 | 140.89414 | 23431 ft | 423 kts | 235° |
| 2026-05-04 23:04 | 42.28411 | 140.86277 | 23931 ft | 426 kts | 235° |
| 2026-05-04 23:04 | 42.26562 | 140.83112 | 24419 ft | 429 kts | 234° |
| 2026-05-04 23:04 | 42.24710 | 140.79943 | 24898 ft | 432 kts | 234° |
| 2026-05-04 23:05 | 42.22844 | 140.76756 | 25385 ft | 433 kts | 234° |
| 2026-05-04 23:05 | 42.20966 | 140.73550 | 25823 ft | 436 kts | 234° |
| 2026-05-04 23:05 | 42.19095 | 140.70358 | 26201 ft | 439 kts | 234° |
| 2026-05-04 23:05 | 42.17193 | 140.67117 | 26585 ft | 442 kts | 234° |
| 2026-05-04 23:06 | 42.15279 | 140.63858 | 26946 ft | 445 kts | 234° |
| 2026-05-04 23:06 | 42.13353 | 140.60583 | 27302 ft | 447 kts | 234° |
| 2026-05-04 23:06 | 42.11412 | 140.57287 | 27663 ft | 449 kts | 233° |
| 2026-05-04 23:06 | 42.09240 | 140.54222 | 27965 ft | 456 kts | 223° |
| 2026-05-04 23:07 | 42.06640 | 140.51730 | 28286 ft | 462 kts | 214° |
| 2026-05-04 23:07 | 42.03749 | 140.49803 | 28702 ft | 466 kts | 204° |
| 2026-05-04 23:07 | 42.00645 | 140.48522 | 29143 ft | 467 kts | 199° |
| 2026-05-04 23:07 | 41.97507 | 140.47390 | 29604 ft | 466 kts | 198° |
| 2026-05-04 23:08 | 41.94403 | 140.46297 | 30385 ft | 456 kts | 198° |
| 2026-05-04 23:08 | 41.91342 | 140.45208 | 30938 ft | 453 kts | 199° |
| 2026-05-04 23:08 | 41.88290 | 140.44097 | 31251 ft | 456 kts | 199° |
| 2026-05-04 23:08 | 41.85229 | 140.42962 | 31553 ft | 457 kts | 199° |
| 2026-05-04 23:09 | 41.82168 | 140.41819 | 31984 ft | 455 kts | 199° |
| 2026-05-04 23:09 | 41.79127 | 140.40682 | 32454 ft | 452 kts | 200° |
| 2026-05-04 23:09 | 41.76097 | 140.39548 | 32911 ft | 450 kts | 200° |
| 2026-05-04 23:09 | 41.73120 | 140.38435 | 33284 ft | 449 kts | 200° |
| 2026-05-04 23:10 | 41.70112 | 140.37311 | 33642 ft | 448 kts | 200° |
| 2026-05-04 23:10 | 41.67113 | 140.36193 | 33993 ft | 447 kts | 200° |
| 2026-05-04 23:10 | 41.64124 | 140.35080 | 34405 ft | 445 kts | 200° |
| 2026-05-04 23:10 | 41.61147 | 140.33974 | 34770 ft | 443 kts | 200° |
| 2026-05-04 23:11 | 41.58181 | 140.32873 | 35145 ft | 441 kts | 200° |
| 2026-05-04 23:11 | 41.55232 | 140.31784 | 35473 ft | 440 kts | 200° |
| 2026-05-04 23:11 | 41.52277 | 140.30696 | 35746 ft | 440 kts | 201° |
| 2026-05-04 23:11 | 41.49331 | 140.29613 | 36048 ft | 438 kts | 201° |
| 2026-05-04 23:12 | 41.46392 | 140.28534 | 36398 ft | 436 kts | 201° |
| 2026-05-04 23:12 | 41.43471 | 140.27462 | 36690 ft | 435 kts | 201° |
| 2026-05-04 23:12 | 41.40566 | 140.26397 | 37110 ft | 430 kts | 201° |
| 2026-05-04 23:12 | 41.37697 | 140.25348 | 37602 ft | 424 kts | 201° |
| 2026-05-04 23:13 | 41.34861 | 140.24309 | 37917 ft | 422 kts | 201° |
| 2026-05-04 23:13 | 41.32053 | 140.23278 | 38025 ft | 425 kts | 202° |
| 2026-05-04 23:13 | 41.26338 | 140.21183 | 38027 ft | 424 kts | 202° |
| 2026-05-04 23:14 | 41.20669 | 140.19115 | 38034 ft | 420 kts | 202° |
| 2026-05-04 23:14 | 41.15050 | 140.17066 | 38028 ft | 418 kts | 202° |
| 2026-05-04 23:15 | 41.09442 | 140.15069 | 38036 ft | 417 kts | 201° |
| 2026-05-04 23:15 | 41.03838 | 140.13145 | 38039 ft | 416 kts | 201° |
| 2026-05-04 23:16 | 40.98239 | 140.11221 | 38043 ft | 415 kts | 202° |
| 2026-05-04 23:16 | 40.92665 | 140.09303 | 38038 ft | 415 kts | 202° |
| 2026-05-04 23:17 | 40.87067 | 140.07378 | 38040 ft | 415 kts | 202° |
| 2026-05-04 23:17 | 40.81507 | 140.05468 | 38044 ft | 414 kts | 202° |
| 2026-05-04 23:18 | 40.75921 | 140.03553 | 38059 ft | 412 kts | 202° |
| 2026-05-04 23:18 | 40.70394 | 140.01661 | 38077 ft | 412 kts | 202° |
| 2026-05-04 23:19 | 40.64823 | 139.99755 | 38073 ft | 411 kts | 202° |
| 2026-05-04 23:19 | 40.59307 | 139.97872 | 38089 ft | 412 kts | 202° |
| 2026-05-04 23:20 | 40.53737 | 139.95974 | 38090 ft | 413 kts | 202° |
| 2026-05-04 23:20 | 40.48199 | 139.94091 | 38086 ft | 413 kts | 202° |
| 2026-05-04 23:21 | 40.42761 | 139.91781 | 38083 ft | 401 kts | 213° |
| 2026-05-04 23:21 | 40.37838 | 139.88424 | 38089 ft | 399 kts | 214° |
| 2026-05-04 23:22 | 40.32928 | 139.85076 | 38091 ft | 398 kts | 214° |
| 2026-05-04 23:22 | 40.28744 | 139.82249 | 38090 ft | 398 kts | 214° |
| 2026-05-04 23:23 | 40.23825 | 139.78941 | 38098 ft | 397 kts | 214° |
| 2026-05-04 23:23 | 40.18906 | 139.75640 | 38098 ft | 397 kts | 214° |
| 2026-05-04 23:24 | 40.13988 | 139.72344 | 38094 ft | 397 kts | 214° |
| 2026-05-04 23:24 | 40.09070 | 139.69054 | 38101 ft | 397 kts | 213° |
| 2026-05-04 23:25 | 40.04149 | 139.65771 | 38100 ft | 398 kts | 213° |
| 2026-05-04 23:25 | 39.99196 | 139.62537 | 38103 ft | 399 kts | 213° |
| 2026-05-04 23:26 | 39.94228 | 139.59320 | 38102 ft | 398 kts | 213° |
| 2026-05-04 23:26 | 39.89260 | 139.56103 | 38103 ft | 398 kts | 213° |
| 2026-05-04 23:27 | 39.84335 | 139.52913 | 38097 ft | 398 kts | 213° |
| 2026-05-04 23:27 | 39.79369 | 139.49700 | 38102 ft | 399 kts | 213° |
| 2026-05-04 23:28 | 39.74398 | 139.46488 | 38103 ft | 399 kts | 213° |
| 2026-05-04 23:28 | 39.69426 | 139.43279 | 38100 ft | 399 kts | 213° |
| 2026-05-04 23:29 | 39.64451 | 139.40076 | 38105 ft | 399 kts | 213° |
| 2026-05-04 23:29 | 39.59474 | 139.36876 | 38106 ft | 399 kts | 213° |
| 2026-05-04 23:30 | 39.54496 | 139.33680 | 38118 ft | 399 kts | 213° |
| 2026-05-04 23:30 | 39.49520 | 139.30491 | 38123 ft | 399 kts | 213° |
| 2026-05-04 23:31 | 39.44534 | 139.27300 | 38121 ft | 399 kts | 213° |
| 2026-05-04 23:31 | 39.39583 | 139.24137 | 38122 ft | 399 kts | 213° |
| 2026-05-04 23:32 | 39.34601 | 139.20960 | 38118 ft | 399 kts | 213° |
| 2026-05-04 23:32 | 39.29625 | 139.17792 | 38120 ft | 399 kts | 213° |
| 2026-05-04 23:33 | 39.24647 | 139.14626 | 38120 ft | 399 kts | 213° |
| 2026-05-04 23:33 | 39.19701 | 139.11486 | 38129 ft | 399 kts | 213° |
| 2026-05-04 23:34 | 39.14714 | 139.08325 | 38119 ft | 399 kts | 213° |
| 2026-05-04 23:34 | 39.09728 | 139.05169 | 38119 ft | 400 kts | 213° |
| 2026-05-04 23:35 | 39.04730 | 139.02011 | 38125 ft | 399 kts | 213° |
| 2026-05-04 23:35 | 38.99733 | 138.98860 | 38132 ft | 399 kts | 213° |
| 2026-05-04 23:36 | 38.94749 | 138.95722 | 38128 ft | 399 kts | 213° |
| 2026-05-04 23:36 | 38.89766 | 138.92590 | 38128 ft | 398 kts | 213° |
| 2026-05-04 23:37 | 38.84818 | 138.89483 | 38131 ft | 398 kts | 213° |
| 2026-05-04 23:37 | 38.79846 | 138.86366 | 38128 ft | 397 kts | 213° |
| 2026-05-04 23:38 | 38.74873 | 138.83254 | 38139 ft | 397 kts | 213° |
| 2026-05-04 23:38 | 38.69910 | 138.80151 | 38142 ft | 397 kts | 213° |
| 2026-05-04 23:39 | 38.64949 | 138.77055 | 38147 ft | 397 kts | 213° |
| 2026-05-04 23:39 | 38.59982 | 138.73961 | 38145 ft | 397 kts | 213° |
| 2026-05-04 23:40 | 38.55014 | 138.70871 | 38144 ft | 396 kts | 213° |
| 2026-05-04 23:40 | 38.50082 | 138.67809 | 38148 ft | 396 kts | 213° |
| 2026-05-04 23:41 | 38.45119 | 138.64732 | 38146 ft | 396 kts | 213° |
| 2026-05-04 23:41 | 38.40164 | 138.61665 | 38146 ft | 396 kts | 213° |
| 2026-05-04 23:42 | 38.35210 | 138.58601 | 38145 ft | 396 kts | 213° |
| 2026-05-04 23:42 | 38.30256 | 138.55542 | 38152 ft | 395 kts | 213° |
| 2026-05-04 23:43 | 38.25299 | 138.52487 | 38156 ft | 396 kts | 213° |
| 2026-05-04 23:43 | 38.20371 | 138.49453 | 38156 ft | 396 kts | 213° |
| 2026-05-04 23:44 | 38.15404 | 138.46400 | 38159 ft | 396 kts | 213° |
| 2026-05-04 23:44 | 38.10462 | 138.43300 | 38155 ft | 392 kts | 218° |
| 2026-05-04 23:45 | 38.06359 | 138.38942 | 38159 ft | 382 kts | 231° |
| 2026-05-04 23:45 | 38.03261 | 138.33566 | 38167 ft | 376 kts | 242° |
| 2026-05-04 23:46 | 38.00733 | 138.27754 | 38158 ft | 377 kts | 243° |
| 2026-05-04 23:46 | 37.98196 | 138.21937 | 38159 ft | 377 kts | 242° |
| 2026-05-04 23:47 | 37.95642 | 138.16142 | 38151 ft | 376 kts | 242° |
| 2026-05-04 23:47 | 37.93082 | 138.10363 | 38159 ft | 376 kts | 242° |
| 2026-05-04 23:48 | 37.90520 | 138.04595 | 38168 ft | 376 kts | 242° |
| 2026-05-04 23:48 | 37.87950 | 137.98820 | 38164 ft | 376 kts | 242° |
| 2026-05-04 23:49 | 37.85398 | 137.93093 | 38167 ft | 376 kts | 242° |
| 2026-05-04 23:49 | 37.82827 | 137.87330 | 38175 ft | 376 kts | 242° |
| 2026-05-04 23:50 | 37.80253 | 137.81572 | 38177 ft | 376 kts | 242° |
| 2026-05-04 23:50 | 37.77678 | 137.75823 | 38175 ft | 375 kts | 242° |
| 2026-05-04 23:51 | 37.75105 | 137.70084 | 38178 ft | 375 kts | 242° |
| 2026-05-04 23:51 | 37.72527 | 137.64346 | 38177 ft | 375 kts | 242° |
| 2026-05-04 23:52 | 37.69948 | 137.58619 | 38180 ft | 374 kts | 242° |
| 2026-05-04 23:52 | 37.67394 | 137.52955 | 38188 ft | 374 kts | 242° |
| 2026-05-04 23:53 | 37.64814 | 137.47243 | 38182 ft | 373 kts | 242° |
| 2026-05-04 23:53 | 37.62237 | 137.41549 | 38186 ft | 373 kts | 242° |
| 2026-05-04 23:54 | 37.59674 | 137.35895 | 38185 ft | 373 kts | 242° |
| 2026-05-04 23:54 | 37.57098 | 137.30226 | 38181 ft | 372 kts | 242° |
| 2026-05-04 23:55 | 37.54526 | 137.24570 | 38184 ft | 371 kts | 242° |
| 2026-05-04 23:56 | 37.50666 | 137.16107 | 38184 ft | 371 kts | 242° |
| 2026-05-04 23:56 | 37.48092 | 137.10470 | 38188 ft | 371 kts | 242° |
| 2026-05-04 23:57 | 37.45514 | 137.04838 | 38181 ft | 371 kts | 242° |
| 2026-05-04 23:57 | 37.42934 | 136.99210 | 38182 ft | 371 kts | 242° |
| 2026-05-04 23:58 | 37.40371 | 136.93632 | 38182 ft | 371 kts | 242° |
| 2026-05-04 23:58 | 37.37789 | 136.88019 | 38187 ft | 371 kts | 242° |
| 2026-05-04 23:59 | 37.35202 | 136.82401 | 38186 ft | 371 kts | 242° |
| 2026-05-04 23:59 | 37.32608 | 136.76783 | 38185 ft | 372 kts | 242° |
| 2026-05-05 00:00 | 37.30002 | 136.71148 | 38188 ft | 373 kts | 242° |
| 2026-05-05 00:00 | 37.27395 | 136.65519 | 38183 ft | 372 kts | 242° |
| 2026-05-05 00:01 | 37.24803 | 136.59934 | 38186 ft | 372 kts | 242° |
| 2026-05-05 00:01 | 37.22193 | 136.54318 | 38186 ft | 373 kts | 242° |
| 2026-05-05 00:02 | 37.19575 | 136.48696 | 38185 ft | 373 kts | 242° |
| 2026-05-05 00:02 | 37.16958 | 136.43086 | 38182 ft | 373 kts | 242° |
| 2026-05-05 00:03 | 37.14336 | 136.37472 | 38193 ft | 373 kts | 242° |
| 2026-05-05 00:03 | 37.07130 | 136.22092 | 38197 ft | 373 kts | 242° |
| 2026-05-05 00:04 | 36.96580 | 135.99711 | 38195 ft | 373 kts | 242° |
| 2026-05-05 00:04 | 36.86004 | 135.77433 | 38208 ft | 373 kts | 242° |
| 2026-05-05 00:05 | 36.77170 | 135.58933 | 38206 ft | 373 kts | 242° |
| 2026-05-05 00:05 | 36.64713 | 135.33023 | 38204 ft | 372 kts | 242° |
| 2026-05-05 00:06 | 36.55814 | 135.14635 | 38199 ft | 373 kts | 242° |
| 2026-05-05 00:06 | 36.45034 | 134.92492 | 38208 ft | 375 kts | 242° |
| 2026-05-05 00:07 | 36.34177 | 134.70337 | 38207 ft | 376 kts | 241° |
| 2026-05-05 00:07 | 36.23264 | 134.48208 | 38209 ft | 376 kts | 241° |
| 2026-05-05 00:08 | 36.12304 | 134.26118 | 38198 ft | 376 kts | 241° |
| 2026-05-05 00:08 | 36.01398 | 134.04268 | 38191 ft | 375 kts | 240° |
| 2026-05-05 00:09 | 35.90370 | 133.82353 | 38187 ft | 375 kts | 240° |
| 2026-05-05 00:09 | 35.79290 | 133.60505 | 38182 ft | 375 kts | 240° |
| 2026-05-05 00:10 | 35.68176 | 133.38729 | 38183 ft | 375 kts | 240° |
| 2026-05-05 00:10 | 35.57031 | 133.17027 | 38186 ft | 375 kts | 240° |
| 2026-05-05 00:10 | 35.50118 | 133.07374 | 38196 ft | 386 kts | 221° |
| 2026-05-05 00:11 | 35.40427 | 133.01172 | 38212 ft | 393 kts | 215° |
| 2026-05-05 00:11 | 35.21104 | 132.88517 | 38173 ft | 394 kts | 216° |
| 2026-05-05 00:12 | 35.01860 | 132.75855 | 38185 ft | 393 kts | 216° |
| 2026-05-05 00:12 | 34.82626 | 132.63225 | 38175 ft | 392 kts | 216° |
| 2026-05-05 00:13 | 34.63549 | 132.50753 | 38198 ft | 390 kts | 216° |
| 2026-05-05 00:13 | 34.44437 | 132.38324 | 38193 ft | 389 kts | 216° |
| 2026-05-05 00:14 | 34.25376 | 132.25977 | 38219 ft | 388 kts | 216° |
| 2026-05-05 00:14 | 34.06294 | 132.13752 | 38218 ft | 391 kts | 214° |
| 2026-05-05 00:15 | 33.86157 | 132.03411 | 38215 ft | 393 kts | 212° |
| 2026-05-05 00:15 | 33.66086 | 131.92993 | 38209 ft | 393 kts | 212° |
| 2026-05-05 00:16 | 33.46026 | 131.82638 | 38208 ft | 392 kts | 212° |
| 2026-05-05 00:16 | 33.26002 | 131.72351 | 38217 ft | 390 kts | 212° |
| 2026-05-05 00:17 | 33.07616 | 131.59662 | 38216 ft | 379 kts | 220° |
| 2026-05-05 00:17 | 32.89703 | 131.46414 | 38202 ft | 378 kts | 220° |
| 2026-05-05 00:18 | 32.71902 | 131.33181 | 38200 ft | 376 kts | 220° |
| 2026-05-05 00:18 | 32.54199 | 131.19935 | 38169 ft | 376 kts | 220° |
| 2026-05-05 00:19 | 32.36500 | 131.06862 | 38234 ft | 375 kts | 220° |
| 2026-05-05 00:19 | 32.18797 | 130.94039 | 38255 ft | 376 kts | 220° |
| 2026-05-05 00:20 | 32.00986 | 130.81071 | 38169 ft | 375 kts | 220° |
| 2026-05-05 00:20 | 31.83315 | 130.68183 | 38173 ft | 372 kts | 220° |
| 2026-05-05 00:21 | 31.66828 | 130.54141 | 38184 ft | 355 kts | 238° |
| 2026-05-05 00:21 | 31.54796 | 130.35616 | 38190 ft | 357 kts | 236° |
| 2026-05-05 00:22 | 31.42613 | 130.17169 | 38179 ft | 357 kts | 236° |
| 2026-05-05 00:22 | 31.30443 | 129.98821 | 38175 ft | 357 kts | 236° |
| 2026-05-05 00:23 | 31.18225 | 129.80519 | 38172 ft | 358 kts | 236° |
| 2026-05-05 00:23 | 31.05905 | 129.62144 | 38172 ft | 359 kts | 236° |
| 2026-05-05 00:24 | 30.93550 | 129.43805 | 38174 ft | 360 kts | 236° |
| 2026-05-05 00:24 | 30.81122 | 129.25440 | 38177 ft | 361 kts | 236° |
| 2026-05-05 00:25 | 30.68841 | 129.06955 | 38169 ft | 362 kts | 237° |
| 2026-05-05 00:25 | 30.56601 | 128.88366 | 38178 ft | 363 kts | 237° |
| 2026-05-05 00:26 | 30.44355 | 128.69888 | 38158 ft | 364 kts | 236° |
| 2026-05-05 00:26 | 30.31979 | 128.51297 | 38157 ft | 364 kts | 236° |
| 2026-05-05 00:27 | 30.19553 | 128.32716 | 38157 ft | 366 kts | 236° |
| 2026-05-05 00:27 | 30.07065 | 128.14129 | 38161 ft | 367 kts | 236° |
| 2026-05-05 00:28 | 29.94510 | 127.95528 | 38158 ft | 367 kts | 236° |
| 2026-05-05 00:28 | 29.81718 | 127.77134 | 38155 ft | 369 kts | 234° |
| 2026-05-05 00:29 | 29.68238 | 127.59235 | 38157 ft | 370 kts | 234° |
| 2026-05-05 00:29 | 29.54966 | 127.41267 | 38159 ft | 370 kts | 236° |
| 2026-05-05 00:30 | 29.42203 | 127.22622 | 38156 ft | 372 kts | 236° |
| 2026-05-05 00:30 | 29.29252 | 127.03984 | 38161 ft | 374 kts | 236° |
| 2026-05-05 00:31 | 29.16226 | 126.85312 | 38157 ft | 376 kts | 236° |
| 2026-05-05 00:31 | 29.03126 | 126.66625 | 38150 ft | 377 kts | 236° |
| 2026-05-05 00:32 | 28.89799 | 126.48123 | 38152 ft | 378 kts | 234° |
| 2026-05-05 00:32 | 28.76158 | 126.29811 | 38149 ft | 379 kts | 234° |
| 2026-05-05 00:33 | 28.62529 | 126.11517 | 38133 ft | 381 kts | 235° |
| 2026-05-05 00:33 | 28.49225 | 125.92713 | 38144 ft | 381 kts | 235° |
| 2026-05-05 00:34 | 28.35873 | 125.73986 | 38128 ft | 381 kts | 235° |
| 2026-05-05 00:34 | 28.22494 | 125.55303 | 38130 ft | 381 kts | 235° |
| 2026-05-05 00:35 | 28.09108 | 125.36691 | 38121 ft | 381 kts | 235° |
| 2026-05-05 00:35 | 27.95766 | 125.18224 | 38127 ft | 381 kts | 235° |
| 2026-05-05 00:36 | 27.82246 | 124.99586 | 38130 ft | 385 kts | 235° |
| 2026-05-05 00:36 | 27.68640 | 124.80916 | 38100 ft | 386 kts | 235° |
| 2026-05-05 00:37 | 27.55132 | 124.62428 | 38092 ft | 385 kts | 235° |
| 2026-05-05 00:37 | 27.41502 | 124.43808 | 38094 ft | 385 kts | 235° |
| 2026-05-05 00:38 | 27.27830 | 124.25216 | 38094 ft | 386 kts | 235° |
| 2026-05-05 00:38 | 27.14106 | 124.06630 | 38090 ft | 387 kts | 235° |
| 2026-05-05 00:39 | 27.00227 | 123.88078 | 38092 ft | 388 kts | 234° |
| 2026-05-05 00:39 | 26.86236 | 123.69576 | 38096 ft | 390 kts | 234° |
| 2026-05-05 00:40 | 26.72174 | 123.51041 | 38089 ft | 390 kts | 234° |
| 2026-05-05 00:40 | 26.58146 | 123.32618 | 38093 ft | 391 kts | 234° |
| 2026-05-05 00:41 | 26.52363 | 123.25035 | 38091 ft | 392 kts | 234° |
| 2026-05-05 00:41 | 26.48828 | 123.20407 | 38089 ft | 392 kts | 234° |
| 2026-05-05 00:42 | 26.44715 | 123.15030 | 38093 ft | 391 kts | 234° |
| 2026-05-05 00:42 | 26.30574 | 122.96590 | 38081 ft | 391 kts | 234° |
| 2026-05-05 00:43 | 26.16357 | 122.78205 | 38076 ft | 392 kts | 234° |
| 2026-05-05 00:43 | 26.02102 | 122.59829 | 38063 ft | 392 kts | 234° |
| 2026-05-05 00:44 | 25.87898 | 122.41562 | 38071 ft | 394 kts | 234° |
| 2026-05-05 00:44 | 25.73579 | 122.23148 | 38064 ft | 394 kts | 234° |
| 2026-05-05 00:45 | 25.59247 | 122.04802 | 38062 ft | 393 kts | 233° |
| 2026-05-05 00:45 | 25.44829 | 121.86490 | 38060 ft | 395 kts | 233° |
| 2026-05-05 00:46 | 25.30338 | 121.68144 | 38062 ft | 397 kts | 233° |
| 2026-05-05 00:46 | 25.16370 | 121.50517 | 38046 ft | 399 kts | 234° |
| 2026-05-05 00:47 | 25.01954 | 121.31830 | 38055 ft | 400 kts | 234° |
| 2026-05-05 00:47 | 24.87436 | 121.13119 | 38052 ft | 402 kts | 234° |
| 2026-05-05 00:48 | 24.72871 | 120.94368 | 38059 ft | 403 kts | 234° |
| 2026-05-05 00:48 | 24.58353 | 120.75717 | 38055 ft | 405 kts | 234° |
| 2026-05-05 00:49 | 24.42774 | 120.57658 | 38038 ft | 409 kts | 231° |
| 2026-05-05 00:49 | 24.26951 | 120.39717 | 38043 ft | 410 kts | 231° |
| 2026-05-05 00:50 | 24.11094 | 120.21651 | 38051 ft | 412 kts | 231° |
| 2026-05-05 00:50 | 23.95128 | 120.03573 | 38055 ft | 413 kts | 231° |
| 2026-05-05 00:51 | 23.79067 | 119.85570 | 38047 ft | 414 kts | 231° |
| 2026-05-05 00:51 | 23.62972 | 119.67575 | 38048 ft | 414 kts | 230° |
| 2026-05-05 00:51 | 23.55926 | 119.57809 | 38060 ft | 408 kts | 242° |
| 2026-05-05 00:52 | 23.49976 | 119.47269 | 38045 ft | 409 kts | 241° |
| 2026-05-05 00:52 | 23.39832 | 119.29803 | 38046 ft | 411 kts | 241° |
| 2026-05-05 00:53 | 23.27538 | 119.08731 | 38048 ft | 413 kts | 241° |
| 2026-05-05 00:53 | 23.15187 | 118.87642 | 38054 ft | 415 kts | 241° |
| 2026-05-05 00:54 | 23.02737 | 118.66471 | 38051 ft | 416 kts | 240° |
| 2026-05-05 00:54 | 22.90218 | 118.45307 | 38055 ft | 417 kts | 240° |
| 2026-05-05 00:55 | 22.77578 | 118.24101 | 38046 ft | 419 kts | 240° |
| 2026-05-05 00:55 | 22.72841 | 118.16173 | 38039 ft | 420 kts | 240° |
| 2026-05-05 00:56 | 22.69662 | 118.10860 | 38037 ft | 420 kts | 240° |
| 2026-05-05 00:56 | 22.66481 | 118.05545 | 38037 ft | 421 kts | 240° |
| 2026-05-05 00:57 | 22.63314 | 118.00261 | 38043 ft | 421 kts | 240° |
| 2026-05-05 00:57 | 22.60128 | 117.94950 | 38045 ft | 421 kts | 240° |
| 2026-05-05 00:58 | 22.56954 | 117.89623 | 38049 ft | 421 kts | 240° |
| 2026-05-05 00:58 | 22.53784 | 117.84294 | 38056 ft | 421 kts | 240° |
| 2026-05-05 00:59 | 22.50606 | 117.78957 | 38054 ft | 421 kts | 240° |
| 2026-05-05 00:59 | 22.47425 | 117.73625 | 38046 ft | 422 kts | 240° |
| 2026-05-05 01:00 | 22.44245 | 117.68300 | 38047 ft | 422 kts | 240° |
| 2026-05-05 01:00 | 22.41061 | 117.62968 | 38046 ft | 422 kts | 240° |
| 2026-05-05 01:01 | 22.37879 | 117.57646 | 38047 ft | 422 kts | 240° |
| 2026-05-05 01:01 | 22.34928 | 117.52249 | 38040 ft | 418 kts | 250° |
| 2026-05-05 01:02 | 22.33324 | 117.46254 | 38043 ft | 415 kts | 262° |
| 2026-05-05 01:02 | 22.33031 | 117.40032 | 38044 ft | 415 kts | 269° |
| 2026-05-05 01:03 | 22.32966 | 117.33803 | 38045 ft | 415 kts | 269° |
| 2026-05-05 01:03 | 22.32887 | 117.27564 | 38046 ft | 415 kts | 269° |
| 2026-05-05 01:04 | 22.32784 | 117.21333 | 38044 ft | 414 kts | 269° |
| 2026-05-05 01:04 | 22.32609 | 117.12036 | 38048 ft | 414 kts | 269° |
| 2026-05-05 01:05 | 22.32488 | 117.05823 | 38046 ft | 414 kts | 269° |
| 2026-05-05 01:05 | 22.32364 | 116.99620 | 38045 ft | 413 kts | 269° |
| 2026-05-05 01:06 | 22.32239 | 116.93412 | 38047 ft | 413 kts | 269° |
| 2026-05-05 01:06 | 22.32111 | 116.87201 | 38046 ft | 413 kts | 269° |
| 2026-05-05 01:07 | 22.31980 | 116.80986 | 38047 ft | 413 kts | 269° |
| 2026-05-05 01:07 | 22.31848 | 116.74768 | 38044 ft | 414 kts | 269° |
| 2026-05-05 01:08 | 22.31714 | 116.68599 | 38045 ft | 414 kts | 269° |
| 2026-05-05 01:08 | 22.31576 | 116.62385 | 38044 ft | 414 kts | 269° |
| 2026-05-05 01:09 | 22.31437 | 116.56159 | 38038 ft | 415 kts | 269° |
| 2026-05-05 01:09 | 22.31294 | 116.49935 | 38038 ft | 415 kts | 269° |
| 2026-05-05 01:10 | 22.31150 | 116.43696 | 38035 ft | 415 kts | 269° |
| 2026-05-05 01:10 | 22.31002 | 116.37458 | 38037 ft | 415 kts | 269° |
| 2026-05-05 01:11 | 22.30852 | 116.31262 | 38039 ft | 415 kts | 269° |
| 2026-05-05 01:11 | 22.30700 | 116.25023 | 38038 ft | 415 kts | 269° |
| 2026-05-05 01:12 | 22.30546 | 116.18785 | 38053 ft | 415 kts | 269° |
| 2026-05-05 01:12 | 22.30389 | 116.12550 | 38056 ft | 416 kts | 269° |
| 2026-05-05 01:13 | 22.30228 | 116.06308 | 38054 ft | 416 kts | 269° |
| 2026-05-05 01:13 | 22.30067 | 116.00065 | 38057 ft | 416 kts | 269° |
| 2026-05-05 01:14 | 22.29903 | 115.93826 | 38055 ft | 416 kts | 269° |
| 2026-05-05 01:14 | 22.29737 | 115.87590 | 38056 ft | 416 kts | 269° |
| 2026-05-05 01:15 | 22.29572 | 115.81383 | 38056 ft | 415 kts | 269° |
| 2026-05-05 01:15 | 22.29435 | 115.75145 | 38056 ft | 415 kts | 269° |
| 2026-05-05 01:16 | 22.29299 | 115.68911 | 38056 ft | 415 kts | 269° |
| 2026-05-05 01:16 | 22.29133 | 115.62675 | 38053 ft | 414 kts | 269° |
| 2026-05-05 01:17 | 22.28955 | 115.56453 | 37954 ft | 414 kts | 269° |
| 2026-05-05 01:17 | 22.28865 | 115.53318 | 37302 ft | 415 kts | 268° |
| 2026-05-05 01:17 | 22.28778 | 115.50262 | 36462 ft | 412 kts | 268° |
| 2026-05-05 01:18 | 22.28690 | 115.47171 | 35517 ft | 412 kts | 268° |
| 2026-05-05 01:18 | 22.28601 | 115.44073 | 34470 ft | 414 kts | 268° |
| 2026-05-05 01:18 | 22.28511 | 115.40963 | 33377 ft | 416 kts | 267° |
| 2026-05-05 01:18 | 22.28421 | 115.37841 | 32283 ft | 416 kts | 268° |
| 2026-05-05 01:19 | 22.28330 | 115.34722 | 31182 ft | 416 kts | 268° |
| 2026-05-05 01:19 | 22.28237 | 115.31602 | 30077 ft | 414 kts | 268° |
| 2026-05-05 01:19 | 22.28143 | 115.28502 | 28978 ft | 411 kts | 268° |
| 2026-05-05 01:19 | 22.28048 | 115.25439 | 27817 ft | 408 kts | 268° |
| 2026-05-05 01:20 | 22.27953 | 115.22381 | 26586 ft | 407 kts | 267° |
| 2026-05-05 01:20 | 22.27858 | 115.19330 | 25365 ft | 406 kts | 267° |
| 2026-05-05 01:20 | 22.27764 | 115.16299 | 24187 ft | 403 kts | 267° |
| 2026-05-05 01:20 | 22.27669 | 115.13277 | 23013 ft | 401 kts | 267° |
| 2026-05-05 01:21 | 22.27575 | 115.10284 | 21869 ft | 397 kts | 267° |
| 2026-05-05 01:21 | 22.27481 | 115.07316 | 20741 ft | 394 kts | 267° |
| 2026-05-05 01:21 | 22.27387 | 115.04377 | 19634 ft | 390 kts | 266° |
| 2026-05-05 01:21 | 22.27294 | 115.01472 | 18544 ft | 385 kts | 266° |
| 2026-05-05 01:22 | 22.27202 | 114.98592 | 17479 ft | 381 kts | 266° |
| 2026-05-05 01:22 | 22.27110 | 114.95750 | 16431 ft | 377 kts | 266° |
| 2026-05-05 01:22 | 22.27018 | 114.92940 | 15399 ft | 372 kts | 266° |
| 2026-05-05 01:22 | 22.26925 | 114.90166 | 14393 ft | 368 kts | 266° |
| 2026-05-05 01:23 | 22.26828 | 114.87418 | 13396 ft | 364 kts | 266° |
| 2026-05-05 01:23 | 22.26734 | 114.84740 | 12427 ft | 360 kts | 266° |
| 2026-05-05 01:23 | 22.26639 | 114.82053 | 11576 ft | 357 kts | 266° |
| 2026-05-05 01:23 | 22.26322 | 114.79483 | 11311 ft | 335 kts | 252° |
| 2026-05-05 01:24 | 22.25389 | 114.77266 | 11029 ft | 317 kts | 238° |
| 2026-05-05 01:24 | 22.24023 | 114.75459 | 10834 ft | 308 kts | 226° |
| 2026-05-05 01:24 | 22.22484 | 114.73837 | 10680 ft | 313 kts | 224° |
| 2026-05-05 01:24 | 22.20871 | 114.72215 | 10525 ft | 318 kts | 224° |
| 2026-05-05 01:25 | 22.19241 | 114.70583 | 10356 ft | 318 kts | 224° |
| 2026-05-05 01:25 | 22.17671 | 114.69004 | 10179 ft | 299 kts | 224° |
| 2026-05-05 01:25 | 22.16197 | 114.67508 | 10036 ft | 283 kts | 224° |
| 2026-05-05 01:25 | 22.14803 | 114.66087 | 9941 ft | 270 kts | 224° |
| 2026-05-05 01:26 | 22.13447 | 114.64702 | 9811 ft | 269 kts | 224° |
| 2026-05-05 01:26 | 22.12087 | 114.63308 | 9668 ft | 268 kts | 224° |
| 2026-05-05 01:26 | 22.10726 | 114.61913 | 9530 ft | 273 kts | 224° |
| 2026-05-05 01:26 | 22.09344 | 114.60494 | 9369 ft | 275 kts | 224° |
| 2026-05-05 01:27 | 22.07957 | 114.59071 | 9225 ft | 276 kts | 224° |
| 2026-05-05 01:27 | 22.06572 | 114.57651 | 9086 ft | 275 kts | 224° |
| 2026-05-05 01:27 | 22.05183 | 114.56228 | 8947 ft | 276 kts | 224° |
| 2026-05-05 01:27 | 22.03791 | 114.54801 | 8813 ft | 276 kts | 224° |
| 2026-05-05 01:28 | 22.02452 | 114.53360 | 8675 ft | 275 kts | 232° |
| 2026-05-05 01:28 | 22.01560 | 114.51541 | 8547 ft | 274 kts | 246° |
| 2026-05-05 01:28 | 22.00832 | 114.49642 | 8421 ft | 274 kts | 248° |
| 2026-05-05 01:28 | 22.00120 | 114.47742 | 8283 ft | 274 kts | 248° |
| 2026-05-05 01:29 | 21.99409 | 114.45838 | 8150 ft | 274 kts | 248° |
| 2026-05-05 01:29 | 21.98692 | 114.43934 | 8015 ft | 275 kts | 248° |
| 2026-05-05 01:29 | 21.97969 | 114.42027 | 7879 ft | 275 kts | 247° |
| 2026-05-05 01:29 | 21.97243 | 114.40120 | 7744 ft | 275 kts | 247° |
| 2026-05-05 01:30 | 21.96514 | 114.38209 | 7613 ft | 276 kts | 247° |
| 2026-05-05 01:30 | 21.95779 | 114.36289 | 7479 ft | 276 kts | 247° |
| 2026-05-05 01:30 | 21.95049 | 114.34383 | 7349 ft | 275 kts | 247° |
| 2026-05-05 01:30 | 21.94325 | 114.32492 | 7214 ft | 275 kts | 247° |
| 2026-05-05 01:31 | 21.93595 | 114.30591 | 7079 ft | 275 kts | 247° |
| 2026-05-05 01:31 | 21.92867 | 114.28693 | 6944 ft | 274 kts | 247° |
| 2026-05-05 01:31 | 21.92139 | 114.26796 | 6810 ft | 274 kts | 247° |
| 2026-05-05 01:31 | 21.91412 | 114.24903 | 6677 ft | 273 kts | 247° |
| 2026-05-05 01:32 | 21.90689 | 114.23023 | 6547 ft | 272 kts | 247° |
| 2026-05-05 01:32 | 21.89968 | 114.21144 | 6415 ft | 271 kts | 248° |
| 2026-05-05 01:32 | 21.89663 | 114.19164 | 6267 ft | 269 kts | 275° |
| 2026-05-05 01:32 | 21.90163 | 114.17317 | 6185 ft | 248 kts | 296° |
| 2026-05-05 01:33 | 21.90944 | 114.15747 | 6062 ft | 228 kts | 299° |
| 2026-05-05 01:33 | 21.91695 | 114.14324 | 5933 ft | 210 kts | 300° |
| 2026-05-05 01:33 | 21.92394 | 114.13005 | 5815 ft | 195 kts | 299° |
| 2026-05-05 01:33 | 21.93037 | 114.11788 | 5692 ft | 183 kts | 300° |
| 2026-05-05 01:34 | 21.93643 | 114.10639 | 5636 ft | 173 kts | 300° |
| 2026-05-05 01:34 | 21.94240 | 114.09494 | 5571 ft | 175 kts | 299° |
| 2026-05-05 01:34 | 21.94836 | 114.08350 | 5501 ft | 180 kts | 300° |
| 2026-05-05 01:34 | 21.95452 | 114.07166 | 5418 ft | 182 kts | 300° |
| 2026-05-05 01:35 | 21.96067 | 114.05986 | 5316 ft | 179 kts | 300° |
| 2026-05-05 01:35 | 21.96670 | 114.04823 | 5226 ft | 177 kts | 300° |
| 2026-05-05 01:35 | 21.97267 | 114.03677 | 5135 ft | 175 kts | 300° |
| 2026-05-05 01:35 | 21.97858 | 114.02524 | 5057 ft | 174 kts | 300° |
| 2026-05-05 01:36 | 21.98455 | 114.01368 | 4982 ft | 178 kts | 300° |
| 2026-05-05 01:36 | 21.99070 | 114.00187 | 4902 ft | 182 kts | 300° |
| 2026-05-05 01:36 | 21.99682 | 113.99002 | 4802 ft | 181 kts | 300° |
| 2026-05-05 01:36 | 22.00291 | 113.97814 | 4710 ft | 181 kts | 300° |
| 2026-05-05 01:37 | 22.00900 | 113.96629 | 4623 ft | 180 kts | 301° |
| 2026-05-05 01:37 | 22.01511 | 113.95447 | 4536 ft | 180 kts | 300° |
| 2026-05-05 01:37 | 22.02130 | 113.94273 | 4447 ft | 180 kts | 301° |
| 2026-05-05 01:37 | 22.02753 | 113.93101 | 4358 ft | 180 kts | 301° |
| 2026-05-05 01:38 | 22.03345 | 113.91951 | 4271 ft | 169 kts | 301° |
| 2026-05-05 01:38 | 22.03901 | 113.90853 | 4207 ft | 166 kts | 301° |
| 2026-05-05 01:38 | 22.04448 | 113.89784 | 4113 ft | 164 kts | 301° |
| 2026-05-05 01:38 | 22.05004 | 113.88695 | 4032 ft | 164 kts | 302° |
| 2026-05-05 01:39 | 22.05547 | 113.87634 | 3959 ft | 164 kts | 301° |
| 2026-05-05 01:39 | 22.06097 | 113.86560 | 3880 ft | 164 kts | 302° |
| 2026-05-05 01:39 | 22.06470 | 113.85832 | 3828 ft | 164 kts | 302° |
| 2026-05-05 01:39 | 22.07202 | 113.84403 | 3723 ft | 165 kts | 302° |
| 2026-05-05 01:40 | 22.07758 | 113.83322 | 3646 ft | 165 kts | 302° |
| 2026-05-05 01:40 | 22.08319 | 113.82231 | 3563 ft | 167 kts | 303° |
| 2026-05-05 01:40 | 22.08693 | 113.81506 | 3515 ft | 168 kts | 302° |
| 2026-05-05 01:40 | 22.09261 | 113.80402 | 3435 ft | 169 kts | 302° |
| 2026-05-05 01:41 | 22.09831 | 113.79292 | 3345 ft | 169 kts | 303° |
| 2026-05-05 01:41 | 22.10398 | 113.78189 | 3262 ft | 168 kts | 302° |
| 2026-05-05 01:41 | 22.11178 | 113.77322 | 3150 ft | 158 kts | 344° |
| 2026-05-05 01:41 | 22.12176 | 113.76883 | 3109 ft | 155 kts | 341° |
| 2026-05-05 01:42 | 22.13155 | 113.76383 | 3041 ft | 156 kts | 340° |
| 2026-05-05 01:42 | 22.14141 | 113.75882 | 2960 ft | 157 kts | 341° |
| 2026-05-05 01:42 | 22.15125 | 113.75385 | 2889 ft | 156 kts | 341° |
| 2026-05-05 01:42 | 22.16108 | 113.74890 | 2811 ft | 155 kts | 341° |
| 2026-05-05 01:43 | 22.17091 | 113.74397 | 2738 ft | 156 kts | 341° |
| 2026-05-05 01:43 | 22.18065 | 113.73909 | 2671 ft | 156 kts | 341° |
| 2026-05-05 01:43 | 22.19055 | 113.73414 | 2588 ft | 156 kts | 340° |
| 2026-05-05 01:43 | 22.20041 | 113.72921 | 2510 ft | 156 kts | 341° |
| 2026-05-05 01:44 | 22.21032 | 113.72462 | 2421 ft | 153 kts | 353° |
| 2026-05-05 01:44 | 22.21965 | 113.72725 | 2361 ft | 138 kts | 45° |
| 2026-05-05 01:44 | 22.22767 | 113.73346 | 2304 ft | 145 kts | 34° |
| 2026-05-05 01:44 | 22.23622 | 113.73909 | 2227 ft | 143 kts | 37° |
| 2026-05-05 01:45 | 22.24455 | 113.74482 | 2140 ft | 144 kts | 37° |
| 2026-05-05 01:45 | 22.25300 | 113.75070 | 2047 ft | 143 kts | 37° |
| 2026-05-05 01:45 | 22.26102 | 113.75672 | 1990 ft | 137 kts | 50° |
| 2026-05-05 01:45 | 22.26511 | 113.76572 | 2009 ft | 137 kts | 68° |
| 2026-05-05 01:46 | 22.26947 | 113.77435 | 2023 ft | 121 kts | 64° |
| 2026-05-05 01:46 | 22.27291 | 113.78194 | 1988 ft | 106 kts | 68° |
| 2026-05-05 01:46 | 22.27572 | 113.78915 | 1997 ft | 104 kts | 71° |
| 2026-05-05 01:46 | 22.27838 | 113.79676 | 1690 ft | 109 kts | 72° |
| 2026-05-05 01:47 | 22.28064 | 113.80356 | 1817 ft | 100 kts | 72° |
| 2026-05-05 01:47 | 22.28316 | 113.81127 | 1702 ft | 110 kts | 72° |
| 2026-05-05 01:47 | 22.28569 | 113.81911 | 1564 ft | 111 kts | 72° |
| 2026-05-05 01:47 | 22.28820 | 113.82692 | 1422 ft | 109 kts | 73° |
| 2026-05-05 01:48 | 22.29072 | 113.83481 | 1282 ft | 111 kts | 72° |
| 2026-05-05 01:48 | 22.29324 | 113.84270 | 1130 ft | 110 kts | 72° |
| 2026-05-05 01:48 | 22.29573 | 113.85048 | 993 ft | 109 kts | 73° |
| 2026-05-05 01:48 | 22.29819 | 113.85821 | 842 ft | 109 kts | 73° |
| 2026-05-05 01:49 | 22.30069 | 113.86601 | 691 ft | 110 kts | 73° |
| 2026-05-05 01:49 | 22.30317 | 113.87375 | 551 ft | 111 kts | 73° |
| 2026-05-05 01:49 | 22.30570 | 113.88166 | 403 ft | 112 kts | 72° |
| 2026-05-05 01:49 | 22.30824 | 113.88958 | 253 ft | 110 kts | 72° |
| 2026-05-05 01:50 | 22.31078 | 113.89739 | 96 ft | 111 kts | 72° |
| 2026-05-05 01:50 | 22.31330 | 113.90517 | 39 ft | 105 kts | 72° |
| 2026-05-05 01:50 | 22.31531 | 113.91149 | 36 ft | 68 kts | 71° |
| 2026-05-05 01:50 | 22.31647 | 113.91516 | 38 ft | 35 kts | 78° |
| 2026-05-05 01:51 | 22.31636 | 113.91767 | 35 ft | 27 kts | 105° |
| 2026-05-05 01:51 | 22.31508 | 113.91846 | 36 ft | 22 kts | 193° |
| 2026-05-05 01:51 | 22.31438 | 113.91711 | 36 ft | 21 kts | 252° |
| 2026-05-05 01:51 | 22.31388 | 113.91562 | 36 ft | 21 kts | 249° |
| 2026-05-05 01:52 | 22.31299 | 113.91467 | 36 ft | 18 kts | 170° |
| 2026-05-05 01:52 | 22.31261 | 113.91498 | 36 ft | 6 kts | 100° |
| 2026-05-05 01:52 | 22.31272 | 113.91537 | 36 ft | 5 kts | 69° |
| 2026-05-05 01:52 | 22.31284 | 113.91573 | 36 ft | 0 kts | 71° |
| 2026-05-05 01:53 | 22.31285 | 113.91577 | 36 ft | 1 kts | 71° |